EGOS

RAF Shawbury Airport

Shawbury, United Kingdom
METAR EGOS 240750Z 09005KT CAVOK 12/07 Q1023 BLU NOSIG
Observed Flight Rules
May-24 @ 07:50 UTC (12 minutes ago) Visual Flight Rules
Wind Visibility Clouds
90° at 5 knots 10,000+ meters
  • Clear skies
Temperatures Readings
Current 12°C / 54°F
Dewpoint 7°C / 45°F
Humidity 72%
Altimeter 30.21" Hg
Pressure 1023 hPa
Elevation 76
METAR EGOS 240750Z 09005KT CAVOK 12/07 Q1023 BLU NOSIG
Observed Flight Rules
May-24 @ 07:50 UTC
(12 minutes ago)
VFR
Wind Visibility
90° at 5 knots 10,000+ meters
Clouds
  • Clear skies
Temperature Dewpoint
12°C / 54°F 7°C / 45°F
Humidity Altimeter Pressure
72% 30.21" Hg 1023 hPa